createdAt,value
2022-10-18T00:01:35.006Z,10.73
2022-10-18T00:06:58.619Z,9.88
2022-10-18T00:12:23.587Z,12.20
2022-10-18T00:17:47.208Z,14.32
2022-10-18T00:23:16.808Z,12.75
2022-10-18T00:28:43.119Z,11.73
2022-10-18T00:34:08.401Z,9.90
2022-10-18T00:39:32.082Z,10.77
2022-10-18T00:45:19.434Z,11.68
2022-10-18T00:50:43.936Z,12.15
2022-10-18T00:56:08.104Z,10.25
2022-10-18T01:01:33.107Z,9.20
2022-10-18T01:07:11.419Z,9.27
2022-10-18T01:12:47.063Z,10.57
2022-10-18T01:18:19.082Z,9.70
2022-10-18T01:24:13.830Z,10.05
2022-10-18T01:29:50.530Z,8.95
2022-10-18T01:35:19.696Z,9.70
2022-10-18T01:40:46.803Z,9.40
2022-10-18T01:46:12.722Z,9.45
2022-10-18T01:51:37.616Z,9.55
2022-10-18T01:57:06.925Z,9.05
2022-10-18T02:02:43.629Z,10.43
2022-10-18T02:08:22.916Z,9.23
2022-10-18T02:13:52.075Z,10.40
2022-10-18T02:19:20.827Z,10.07
2022-10-18T02:24:51.054Z,9.07
2022-10-18T02:30:16.238Z,9.13
2022-10-18T02:35:45.551Z,10.20
2022-10-18T02:41:10.446Z,10.32
2022-10-18T02:46:35.439Z,9.57
2022-10-18T02:51:59.801Z,11.35
2022-10-18T02:57:25.287Z,12.00
2022-10-18T03:02:49.202Z,16.20
2022-10-18T03:08:12.852Z,15.35
2022-10-18T03:13:37.901Z,15.70
2022-10-18T03:19:01.528Z,14.48
2022-10-18T03:24:25.534Z,14.20
2022-10-18T03:29:50.678Z,12.93
2022-10-18T03:35:14.200Z,10.63
2022-10-18T03:40:38.160Z,11.48
2022-10-18T03:46:03.147Z,10.52
2022-10-18T03:51:26.688Z,10.80
2022-10-18T03:56:50.266Z,10.50
2022-10-18T04:02:15.809Z,8.70
2022-10-18T04:07:39.452Z,9.77
2022-10-18T04:13:03.481Z,9.45
2022-10-18T04:18:28.393Z,12.30
2022-10-18T04:23:52.458Z,12.85
2022-10-18T04:29:16.315Z,10.35
2022-10-18T04:40:05.947Z,8.90
2022-10-18T04:45:29.574Z,10.18
2022-10-18T04:50:54.543Z,10.75
2022-10-18T04:56:18.129Z,11.38
2022-10-18T05:01:41.800Z,8.70
2022-10-18T05:07:07.014Z,11.35
2022-10-18T05:12:31.053Z,10.50
2022-10-18T05:17:54.831Z,10.52
2022-10-18T05:23:20.397Z,10.77
2022-10-18T05:28:44.227Z,10.48
2022-10-18T05:34:07.876Z,12.15
2022-10-18T05:39:33.639Z,13.45
2022-10-18T05:44:57.230Z,15.20
2022-10-18T05:50:20.821Z,16.55
2022-10-18T05:55:45.751Z,14.90
2022-10-18T06:01:10.974Z,14.93
2022-10-18T06:06:35.158Z,13.23
2022-10-18T06:12:00.086Z,12.45
2022-10-18T06:17:24.157Z,13.73
2022-10-18T06:22:48.954Z,13.45
2022-10-18T06:28:14.048Z,12.65
2022-10-18T06:33:38.097Z,12.55
2022-10-18T06:39:02.586Z,15.32
2022-10-18T06:44:27.566Z,16.40
2022-10-18T06:49:51.408Z,17.15
2022-10-18T06:55:15.129Z,16.30
2022-10-18T07:00:40.054Z,17.30
2022-10-18T07:06:04.415Z,17.48
2022-10-18T07:11:28.322Z,17.85
2022-10-18T07:16:53.325Z,19.05
2022-10-18T07:22:17.653Z,18.38
2022-10-18T07:27:43.470Z,17.10
2022-10-18T07:33:08.518Z,14.77
2022-10-18T07:38:32.419Z,15.75
2022-10-18T07:43:55.978Z,14.63
2022-10-18T07:49:20.903Z,15.85
2022-10-18T07:54:45.104Z,14.13
2022-10-18T08:00:09.908Z,13.80
2022-10-18T08:05:36.636Z,13.75
2022-10-18T08:11:03.942Z,14.40
2022-10-18T08:21:57.261Z,12.38
2022-10-18T08:27:20.849Z,11.23
2022-10-18T08:32:44.521Z,11.60
2022-10-18T08:38:16.475Z,11.38
2022-10-18T08:43:48.145Z,11.52
2022-10-18T08:49:17.463Z,10.57
2022-10-18T08:54:50.212Z,9.38
2022-10-18T09:00:17.291Z,10.98
2022-10-18T09:05:49.510Z,8.40
2022-10-18T09:11:28.269Z,8.90
2022-10-18T09:17:01.496Z,8.20
2022-10-18T09:22:37.184Z,7.72
2022-10-18T09:28:15.415Z,5.70
2022-10-18T09:33:50.263Z,6.28
2022-10-18T09:39:16.618Z,4.60
2022-10-18T09:44:46.759Z,4.60
2022-10-18T09:50:19.198Z,5.20
2022-10-18T09:55:55.168Z,4.90
2022-10-18T10:01:24.136Z,5.18
2022-10-18T10:06:51.411Z,5.38
2022-10-18T10:12:29.319Z,4.82
2022-10-18T10:17:58.723Z,5.07
2022-10-18T10:23:25.458Z,5.65
2022-10-18T10:28:49.735Z,5.50
2022-10-18T10:34:21.183Z,5.28
2022-10-18T10:39:51.226Z,5.18
2022-10-18T10:45:26.873Z,5.40
2022-10-18T10:51:05.022Z,4.30
2022-10-18T10:56:30.932Z,4.70
2022-10-18T11:02:20.556Z,4.80
2022-10-18T11:07:47.949Z,4.43
2022-10-18T11:13:24.231Z,4.25
2022-10-18T11:18:50.561Z,3.20
2022-10-18T11:24:17.751Z,3.40
2022-10-18T11:29:51.495Z,3.33
2022-10-18T11:35:28.394Z,3.88
2022-10-18T11:41:10.195Z,3.92
2022-10-18T11:46:46.292Z,4.00
2022-10-18T11:52:17.642Z,3.60
2022-10-18T11:58:02.834Z,3.67
2022-10-18T12:03:36.063Z,5.38
2022-10-18T12:09:03.162Z,5.28
2022-10-18T12:14:31.205Z,5.80
2022-10-18T12:19:58.271Z,6.25
2022-10-18T12:25:22.277Z,5.22
2022-10-18T12:30:54.919Z,4.45
2022-10-18T12:36:31.655Z,4.80
2022-10-18T12:41:57.236Z,3.97
2022-10-18T12:47:25.339Z,4.15
2022-10-18T12:53:17.089Z,3.88
2022-10-18T12:58:40.935Z,4.18
2022-10-18T13:04:38.266Z,3.97
2022-10-18T13:10:36.862Z,3.53
2022-10-18T13:16:29.155Z,3.30
2022-10-18T13:22:12.553Z,3.05
2022-10-18T13:27:44.756Z,3.33
2022-10-18T13:33:30.095Z,3.25
2022-10-18T13:39:06.590Z,3.50
2022-10-18T13:44:33.418Z,3.08
2022-10-18T13:50:33.950Z,3.40
2022-10-18T14:02:10.109Z,3.20
2022-10-18T14:07:35.350Z,2.83
2022-10-18T14:13:01.784Z,3.80
2022-10-18T14:18:31.966Z,3.00
2022-10-18T14:24:01.883Z,2.78
2022-10-18T14:29:26.029Z,3.90
2022-10-18T14:34:51.467Z,3.65
2022-10-18T14:40:29.099Z,3.72
2022-10-18T14:45:52.729Z,3.45
2022-10-18T14:51:17.703Z,3.42
2022-10-18T14:56:43.541Z,4.22
2022-10-18T15:02:15.142Z,3.83
2022-10-18T15:07:40.286Z,3.83
2022-10-18T15:13:10.140Z,3.22
2022-10-18T15:18:34.657Z,4.25
2022-10-18T15:24:20.915Z,4.18
2022-10-18T15:29:44.556Z,4.10
2022-10-18T15:35:10.478Z,3.95
2022-10-18T15:40:41.093Z,5.18
2022-10-18T15:46:07.419Z,3.92
2022-10-18T15:51:48.925Z,4.40
2022-10-18T15:57:14.157Z,5.07
2022-10-18T16:02:38.341Z,5.63
2022-10-18T16:08:01.892Z,5.45
2022-10-18T16:13:27.629Z,5.80
2022-10-18T16:18:52.011Z,7.43
2022-10-18T16:24:16.254Z,9.80
2022-10-18T16:29:43.793Z,8.18
2022-10-18T16:35:08.281Z,5.97
2022-10-18T16:40:31.907Z,6.45
2022-10-18T16:45:56.988Z,6.15
2022-10-18T16:51:21.120Z,5.75
2022-10-18T16:56:44.699Z,5.25
2022-10-18T17:02:11.635Z,6.05
2022-10-18T17:07:35.240Z,5.90
2022-10-18T17:12:58.861Z,7.20
2022-10-18T17:18:26.408Z,6.53
2022-10-18T17:23:50.489Z,6.90
2022-10-18T17:29:14.096Z,6.95
2022-10-18T17:34:39.277Z,7.00
2022-10-18T17:40:02.856Z,7.03
2022-10-18T17:45:26.667Z,8.40
2022-10-18T17:50:51.652Z,8.98
2022-10-18T17:56:16.090Z,9.68
2022-10-18T18:01:39.803Z,10.20
2022-10-18T18:07:04.923Z,9.75
2022-10-18T18:12:28.726Z,11.25
2022-10-18T18:17:57.005Z,9.27
2022-10-18T18:23:22.554Z,9.77
2022-10-18T18:28:46.343Z,12.95
2022-10-18T18:34:11.253Z,11.85
2022-10-18T18:39:38.855Z,10.48
2022-10-18T18:45:02.570Z,11.73
2022-10-18T18:50:26.438Z,12.75
2022-10-18T18:55:52.149Z,11.48
2022-10-18T19:01:18.435Z,12.02
2022-10-18T19:06:44.322Z,12.02
2022-10-18T19:12:09.285Z,11.75
2022-10-18T19:17:33.157Z,13.77
2022-10-18T19:22:56.976Z,13.13
2022-10-18T19:28:21.929Z,12.55
2022-10-18T19:33:48.787Z,11.18
2022-10-18T19:39:24.397Z,11.50
2022-10-18T19:44:55.394Z,12.75
2022-10-18T19:50:19.265Z,10.98
2022-10-18T19:55:42.884Z,10.38
2022-10-18T20:01:07.864Z,10.68
2022-10-18T20:06:31.851Z,10.52
2022-10-18T20:11:55.623Z,11.30
2022-10-18T20:17:20.875Z,12.00
2022-10-18T20:22:44.471Z,14.98
2022-10-18T20:28:08.428Z,14.65
2022-10-18T20:33:33.763Z,12.30
2022-10-18T20:38:57.847Z,12.80
2022-10-18T20:44:22.657Z,11.70
2022-10-18T20:49:47.602Z,11.45
2022-10-18T20:55:11.198Z,10.82
2022-10-18T21:00:35.499Z,12.85
2022-10-18T21:06:02.250Z,11.77
2022-10-18T21:11:26.879Z,14.13
2022-10-18T21:16:52.723Z,11.82
2022-10-18T21:22:17.710Z,16.60
2022-10-18T21:27:41.871Z,15.90
2022-10-18T21:33:07.082Z,11.77
2022-10-18T21:38:32.083Z,12.88
2022-10-18T21:43:56.387Z,16.25
2022-10-18T21:49:20.358Z,15.70
2022-10-18T21:54:45.295Z,14.82
2022-10-18T22:00:09.789Z,12.93
2022-10-18T22:05:33.316Z,12.50
2022-10-18T22:10:59.207Z,12.13
2022-10-18T22:16:23.498Z,11.13
2022-10-18T22:21:47.919Z,10.68
2022-10-18T22:27:12.878Z,11.52
2022-10-18T22:32:36.492Z,11.57
2022-10-18T22:38:00.350Z,11.85
2022-10-18T22:43:25.267Z,11.85
2022-10-18T22:48:51.725Z,10.43
2022-10-18T22:54:15.524Z,11.10
2022-10-18T22:59:40.520Z,9.90
2022-10-18T23:05:04.782Z,9.07
2022-10-18T23:10:28.359Z,9.75
2022-10-18T23:15:53.843Z,8.38
2022-10-18T23:21:17.454Z,8.70
2022-10-18T23:26:41.068Z,8.18
2022-10-18T23:32:06.783Z,9.77
2022-10-18T23:37:30.550Z,9.15
2022-10-18T23:42:54.261Z,8.23
2022-10-18T23:48:19.466Z,8.07
2022-10-18T23:53:43.396Z,9.25
2022-10-18T23:59:06.977Z,9.23
